Latest Weather Observations for Badgerys Creek

IDN60901

Issued at 4:21 pm EST Sunday 23 September 2018 (issued every 10 minutes, with the page automatically refreshed every 10 minutes)

About weather observations | Map of Sydney area stations | Latest observations for Sydney area | Other Formats
Station Details ID: 067108 Name: BADGERYS CREEK AWS Lat: -33.90 Lon: 150.73 Height: 81.2 m
Data from the previous 72 hours. | See also: Recent months at Badgerys Creek
Date/Time
EST
Temp
°C
App
Temp
°C
Dew
Point
°C
Rel
Hum
%
Delta-T
°C
Wind Press
QNH
hPa
Press
MSL
hPa
Rain since
9am
mm
Dir  Spd
km/h
Gust
km/h
Spd
kts
Gust
kts
23/04:00pm 17.9 14.0 9.3 57 4.5 ESE 20 30 11 16 1023.6 1023.5 0.0
23/03:30pm 18.8 14.9 9.3 54 5.0 ESE 20 32 11 17 1023.3 1023.2 0.0
23/03:00pm 19.8 15.6 9.7 52 5.4 ESE 22 32 12 17 1023.1 1023.0 0.0
23/02:30pm 21.2 16.9 9.4 47 6.3 E 22 32 12 17 1023.1 1023.0 0.0
23/02:00pm 21.0 17.1 8.6 45 6.5 ESE 19 32 10 17 1023.3 1023.2 0.0
23/01:30pm 21.2 17.3 8.8 45 6.6 ESE 19 30 10 16 1023.5 1023.4 0.0
23/01:00pm 21.0 18.5 8.3 44 6.6 E 11 20 6 11 1023.9 1023.8 0.0
23/12:30pm 21.1 18.7 8.7 45 6.6 E 11 24 6 13 1024.2 1024.1 0.0
23/12:00pm 22.0 20.1 9.2 44 6.8 ENE 9 22 5 12 1024.6 1024.6 0.0
23/11:30am 20.7 18.5 7.7 43 6.7 ESE 9 15 5 8 1025.0 1025.0 0.0
23/11:00am 20.3 18.0 7.3 43 6.6 SE 9 17 5 9 1025.4 1025.4 0.0
23/10:30am 19.8 17.3 8.2 47 6.0 SSW 11 20 6 11 1025.7 1025.7 0.0
23/10:00am 19.2 17.9 9.1 52 5.3 S 6 19 3 10 1025.8 1025.8 0.0
23/09:30am 18.0 15.5 9.6 58 4.4 S 13 19 7 10 1026.3 1026.3 0.0
23/09:00am 17.2 13.5 9.4 60 4.1 S 19 26 10 14 1026.3 1026.3 0.0
23/08:30am 16.2 13.1 8.7 61 3.8 S 15 26 8 14 1026.2 1026.2 0.0
23/08:00am 14.6 13.3 6.2 57 4.0 WSW 2 4 1 2 1026.1 1026.1 0.0
23/07:30am 12.8 10.6 5.2 60 3.5 WSW 6 7 3 4 1026.1 1026.1 0.0
23/07:00am 9.3 7.3 4.5 72 2.1 WSW 4 6 2 3 1026.1 1026.1 0.0
23/06:30am 7.5 5.3 3.6 76 1.7 WSW 4 6 2 3 1025.7 1025.7 0.0
23/06:00am 6.0 3.8 3.3 83 1.1 WSW 4 6 2 3 1025.3 1025.3 0.0
23/05:30am 6.1 4.0 3.8 85 1.0 SW 4 6 2 3 1025.0 1025.0 0.0
23/05:00am 5.7 2.9 3.2 84 1.0 WSW 7 7 4 4 1024.5 1024.5 0.0
23/04:30am 6.3 4.0 2.8 78 1.5 WSW 4 6 2 3 1024.1 1024.0 0.0
23/04:00am 6.5 4.2 2.8 77 1.5 WSW 4 6 2 3 1023.7 1023.6 0.0
23/03:30am 7.4 5.1 2.7 72 2.0 WSW 4 6 2 3 1023.5 1023.4 0.0
23/03:00am 7.9 6.3 2.4 68 2.3 CALM 0 0 0 0 1023.6 1023.5 0.0
23/02:30am 9.0 7.0 2.1 62 2.9 WSW 2 4 1 2 1023.6 1023.5 0.0
23/02:00am 9.1 6.9 3.3 67 2.5 WSW 4 6 2 3 1023.7 1023.6 0.0
23/01:30am 10.2 7.6 3.3 62 3.0 WSW 6 6 3 3 1023.8 1023.7 0.0
23/01:00am 10.5 8.6 3.1 60 3.2 WSW 2 4 1 2 1024.2 1024.1 0.0
23/12:30am 11.0 8.7 2.6 56 3.6 WSW 4 6 2 3 1024.4 1024.4 0.0
23/12:00am 12.1 9.4 2.8 53 4.1 WSW 6 7 3 4 1024.4 1024.4 0.0
 
Date/Time
EST
Temp
°C
App
Temp
°C
Dew
Point
°C
Rel
Hum
%
Delta-T
°C
Wind Press
QNH
hPa
Press
MSL
hPa
Rain since
9am
mm
Dir  Spd
km/h
Gust
km/h
Spd
kts
Gust
kts
22/11:30pm 12.8 10.0 2.9 51 4.4 WSW 7 9 4 5 1024.4 1024.4 0.0
22/11:00pm 13.7 11.1 4.0 52 4.4 SW 7 9 4 5 1024.5 1024.5 0.0
22/10:30pm 12.0 9.4 5.9 66 2.9 SSW 9 11 5 6 1024.3 1024.2 0.0
22/10:00pm 14.8 14.3 7.8 63 3.5 CALM 0 2 0 1 1024.0 1023.9 0.0
22/09:30pm 14.0 12.1 5.1 55 4.2 S 4 6 2 3 1024.0 1023.9 0.0
22/09:00pm 15.7 15.0 7.0 56 4.3 CALM 0 0 0 0 1024.1 1024.0 0.0
22/08:30pm 16.4 14.2 5.4 48 5.3 S 6 9 3 5 1023.8 1023.7 0.0
22/08:00pm 17.8 15.9 6.7 48 5.5 SW 6 7 3 4 1023.7 1023.6 0.0
22/07:30pm 17.7 14.8 2.5 36 7.0 SW 7 9 4 5 1023.2 1023.1 0.0
22/07:00pm 18.8 15.4 1.8 32 7.7 WSW 9 13 5 7 1023.1 1023.0 0.0
22/06:30pm 20.2 15.7 2.1 30 8.4 WSW 15 17 8 9 1022.7 1022.6 0.0
22/06:00pm 21.0 17.0 0.8 26 9.1 WSW 11 15 6 8 1022.5 1022.4 0.0
22/05:30pm 22.7 17.7 1.1 24 10.0 WSW 17 22 9 12 1022.3 1022.2 0.0
22/05:00pm 23.2 19.1 2.1 25 10.0 WSW 13 19 7 10 1021.9 1021.8 0.0
22/04:30pm 24.4 22.6 3.7 26 10.2 NNE 2 7 1 4 1021.7 1021.6 0.0
22/04:00pm 24.7 22.7 4.5 27 10.1 N 4 11 2 6 1021.5 1021.4 0.0
22/03:30pm 24.3 21.8 3.6 26 10.2 NNW 6 9 3 5 1021.6 1021.5 0.0
22/03:00pm 24.6 22.2 4.4 27 10.1 NNE 6 11 3 6 1021.9 1021.8 0.0
22/02:30pm 23.9 21.3 4.3 28 9.7 NE 7 13 4 7 1022.1 1022.0 0.0
22/02:00pm 23.5 21.0 4.0 28 9.6 NE 6 9 3 5 1022.6 1022.5 0.0
22/01:30pm 23.5 20.9 4.0 28 9.6 NNE 7 15 4 8 1023.0 1022.9 0.0
22/01:00pm 23.1 20.5 4.1 29 9.3 NW 7 13 4 7 1023.6 1023.5 0.0
22/12:30pm 22.7 20.2 3.8 29 9.2 SE 6 15 3 8 1024.1 1024.0 0.0
22/12:00pm 22.1 19.6 3.7 30 8.9 NE 6 11 3 6 1024.7 1024.7 0.0
22/11:30am 21.9 19.7 3.1 29 9.0 N 4 11 2 6 1025.5 1025.5 0.0
22/11:00am 21.0 18.1 4.6 34 8.0 NNE 9 13 5 7 1026.2 1026.2 0.0
22/10:30am 19.8 17.4 7.2 44 6.4 NNE 9 17 5 9 1026.6 1026.6 0.0
22/10:00am 18.1 16.2 6.9 48 5.6 NNE 6 9 3 5 1027.0 1027.0 0.0
22/09:30am 16.7 15.2 6.8 52 4.9 NNE 4 7 2 4 1027.4 1027.4 0.0
22/09:00am 15.4 13.9 6.9 57 4.2 NE 4 9 2 5 1027.8 1027.8 0.0
22/08:30am 13.6 12.8 6.7 63 3.3 CALM 0 2 0 1 1028.0 1028.0 0.0
22/08:00am 11.5 10.8 6.8 73 2.2 CALM 0 0 0 0 1028.2 1028.2 0.0
22/07:30am 9.6 8.9 6.9 83 1.3 CALM 0 0 0 0 1028.2 1028.2 0.0
22/07:00am 7.2 6.5 7.1 99 0.0 CALM 0 0 0 0 1028.2 1028.2 0.0
22/06:30am 5.3 4.2 5.2 99 0.0 CALM 0 0 0 0 1027.9 1027.9 0.0
22/06:00am 4.8 3.6 4.7 99 0.0 CALM 0 0 0 0 1027.6 1027.6 0.0
22/05:30am 5.7 4.7 5.6 99 0.0 CALM 0 0 0 0 1027.3 1027.3 0.0
22/05:00am 5.6 4.2 5.5 99 0.0 SE 2 4 1 2 1027.0 1027.0 0.0
22/04:30am 5.6 3.3 5.5 99 0.0 SE 7 9 4 5 1026.9 1026.9 0.0
22/04:00am 6.1 4.4 5.7 97 0.2 SE 4 6 2 3 1026.8 1026.8 0.0
22/03:30am 6.1 3.8 5.7 97 0.2 SE 7 7 4 4 1026.5 1026.5 0.0
22/03:00am 6.2 4.4 5.6 96 0.3 SE 4 6 2 3 1026.6 1026.6 0.0
22/02:30am 6.7 5.3 5.3 91 0.6 SE 2 4 1 2 1026.9 1026.9 0.0
22/02:00am 7.1 5.0 5.6 90 0.7 SE 6 6 3 3 1027.2 1027.2 0.0
22/01:30am 7.4 5.1 4.9 84 1.1 SE 6 6 3 3 1027.7 1027.7 0.0
22/01:00am 8.6 6.4 5.4 80 1.4 SE 6 6 3 3 1027.8 1027.8 0.0
22/12:30am 9.5 6.8 5.5 76 1.8 SE 9 9 5 5 1028.0 1028.0 0.0
22/12:00am 9.2 6.9 5.8 79 1.5 SE 7 7 4 4 1027.8 1027.8 0.0
 
Date/Time
EST
Temp
°C
App
Temp
°C
Dew
Point
°C
Rel
Hum
%
Delta-T
°C
Wind Press
QNH
hPa
Press
MSL
hPa
Rain since
9am
mm
Dir  Spd
km/h
Gust
km/h
Spd
kts
Gust
kts
21/11:30pm 7.7 5.4 4.7 81 1.3 SE 6 6 3 3 1027.8 1027.8 0.0
21/11:00pm 9.1 7.4 5.7 79 1.5 SE 4 4 2 2 1028.0 1028.0 0.0
21/10:30pm 9.5 7.8 5.9 78 1.7 SE 4 4 2 2 1028.0 1028.0 0.0
21/10:00pm 9.4 7.1 4.8 73 2.0 SE 6 6 3 3 1028.0 1028.0 0.0
21/09:30pm 9.8 7.8 4.6 70 2.3 E 4 6 2 3 1027.9 1027.9 0.0
21/09:00pm 11.4 9.9 4.8 64 3.0 E 2 4 1 2 1027.8 1027.8 0.0
21/08:30pm 11.9 10.0 4.9 62 3.2 E 4 4 2 2 1027.5 1027.5 0.0
21/08:00pm 13.0 11.1 4.9 58 3.7 E 4 4 2 2 1027.2 1027.2 0.0
21/07:30pm 13.5 12.0 4.9 56 4.0 E 2 2 1 1 1026.8 1026.8 0.0
21/07:00pm 15.4 13.1 5.0 50 4.9 E 6 7 3 4 1026.2 1026.2 0.0
21/06:30pm 16.1 13.3 5.1 48 5.2 E 9 15 5 8 1025.7 1025.7 0.0
21/06:00pm 17.0 13.5 5.3 46 5.6 E 13 20 7 11 1025.3 1025.3 0.0
21/05:30pm 18.2 14.4 5.8 44 6.1 ENE 15 22 8 12 1024.9 1024.9 0.0
21/05:00pm 19.1 14.6 5.9 42 6.5 E 19 28 10 15 1024.4 1024.4 0.0
21/04:30pm 20.3 15.5 4.8 36 7.6 E 19 24 10 13 1024.1 1024.0 0.0
21/04:00pm 21.6 17.6 0.2 24 9.6 NE 11 15 6 8 1023.9 1023.8 0.0
21/03:30pm 21.7 18.5 -0.3 23 9.8 NE 6 13 3 7 1024.0 1023.9 0.0
21/03:00pm 21.8 18.7 0.4 24 9.7 SSE 6 13 3 7 1024.2 1024.1 0.0
21/02:30pm 21.8 19.0 -0.2 23 9.9 NNE 4 15 2 8 1024.4 1024.4 0.0
21/02:00pm 21.1 17.3 -0.8 23 9.6 NE 9 15 5 8 1024.8 1024.8 0.0
21/01:30pm 20.9 17.9 0.7 26 9.1 ENE 6 11 3 6 1025.1 1025.1 0.0
21/01:00pm 20.1 16.9 0.5 27 8.7 NNE 7 15 4 8 1025.5 1025.5 0.0
21/12:30pm 19.8 16.8 1.7 30 8.3 S 7 11 4 6 1026.0 1026.0 0.0
21/12:00pm 19.5 17.1 1.9 31 8.0 ENE 4 11 2 6 1026.4 1026.4 0.0
21/11:30am 19.1 16.2 1.6 31 8.0 NNW 6 11 3 6 1026.7 1026.7 0.0
21/11:00am 18.0 14.9 1.1 32 7.5 NNE 7 9 4 5 1027.1 1027.1 0.0
21/10:30am 16.6 13.8 1.9 37 6.6 NNW 6 9 3 5 1027.4 1027.4 0.0
21/10:00am 16.7 14.3 2.3 38 6.5 NNE 4 7 2 4 1027.7 1027.7 0.0
21/09:30am 15.4 13.5 2.6 42 5.8 ESE 2 6 1 3 1028.0 1028.0 0.0
21/09:00am 13.7 12.0 3.8 51 4.5 ESE 2 4 1 2 1028.1 1028.1 0.0
21/08:30am 11.9 10.3 4.4 60 3.4 ESE 2 6 1 3 1028.0 1028.0 0.0
21/08:00am 10.3 8.7 4.7 68 2.5 SSE 2 4 1 2 1027.9 1027.9 0.0
21/07:30am 7.5 5.6 4.8 83 1.2 SSE 4 4 2 2 1027.5 1027.5 0.0
21/07:00am 5.0 2.7 4.9 99 0.0 SSE 6 6 3 3 1027.2 1027.2 0.0
21/06:30am 3.0 0.7 2.9 99 0.0 SSE 4 4 2 2 1026.8 1026.8 0.0
21/06:00am 2.1 -0.3 2.0 99 0.0 SSE 4 4 2 2 1026.5 1026.5 0.0
21/05:30am 2.2 -0.2 2.1 99 0.0 SSE 4 6 2 3 1026.2 1026.2 0.0
21/05:00am 2.9 1.4 2.8 99 0.0 CALM 0 0 0 0 1025.8 1025.8 0.0
21/04:30am 3.4 2.0 3.3 99 0.0 CALM 0 2 0 1 1025.5 1025.5 0.0
21/04:00am 3.0 0.6 2.4 96 0.2 SSE 4 6 2 3 1025.3 1025.3 0.0
21/03:30am 3.7 1.0 2.7 93 0.4 SSE 6 6 3 3 1025.2 1025.2 0.0
21/03:00am 4.6 2.5 3.7 94 0.4 SSE 4 6 2 3 1025.0 1025.0 0.0
21/02:30am 4.0 1.7 2.7 91 0.5 SSE 4 6 2 3 1025.1 1025.1 0.0
21/02:00am 4.8 2.0 3.0 88 0.7 SSE 7 9 4 5 1025.3 1025.3 0.0
21/01:30am 4.2 1.2 2.2 87 0.8 SSE 7 7 4 4 1025.5 1025.5 0.0
21/01:00am 5.0 2.3 2.9 86 0.9 SSE 6 6 3 3 1025.6 1025.6 0.0
21/12:30am 6.0 3.4 3.2 82 1.2 SSE 6 6 3 3 1025.7 1025.7 0.0
21/12:00am 5.3 2.4 2.8 84 1.0 SSE 7 9 4 5 1025.6 1025.6 0.0
 
Date/Time
EST
Temp
°C
App
Temp
°C
Dew
Point
°C
Rel
Hum
%
Delta-T
°C
Wind Press
QNH
hPa
Press
MSL
hPa
Rain since
9am
mm
Dir  Spd
km/h
Gust
km/h
Spd
kts
Gust
kts
20/11:30pm 6.1 3.5 3.3 82 1.2 SSE 6 6 3 3 1025.1 1025.1 0.0
20/11:00pm 7.2 5.0 3.3 76 1.6 SSE 4 4 2 2 1024.9 1024.9 0.0
20/10:30pm 6.9 4.3 3.0 76 1.6 SSE 6 7 3 4 1025.1 1025.1 0.0
20/10:00pm 8.2 5.6 3.1 70 2.2 SSE 6 7 3 4 1025.0 1025.0 0.0
20/09:30pm 8.4 5.8 3.1 69 2.3 SSE 6 6 3 3 1024.8 1024.8 0.0
20/09:00pm 9.3 6.8 3.5 67 2.5 SSE 6 7 3 4 1024.6 1024.6 0.0
20/08:30pm 8.3 5.6 2.8 68 2.3 SSE 6 6 3 3 1024.3 1024.2 0.0
20/08:00pm 9.9 7.6 3.0 62 3.0 SSE 4 4 2 2 1023.7 1023.6 0.0
20/07:30pm 11.1 9.3 3.2 58 3.5 SE 2 2 1 1 1023.3 1023.2 0.0
20/07:00pm 12.0 9.8 3.3 55 3.8 SE 4 6 2 3 1022.8 1022.7 0.0
20/06:30pm 12.7 9.6 3.4 53 4.2 SE 9 13 5 7 1022.4 1022.3 0.0
20/06:00pm 13.4 10.2 2.9 49 4.7 SE 9 13 5 7 1021.7 1021.6 0.0
20/05:30pm 14.7 10.8 3.2 46 5.2 ESE 13 20 7 11 1021.0 1020.9 0.0
20/05:00pm 15.5 10.8 3.3 44 5.6 E 17 22 9 12 1020.2 1020.1 0.0
20/04:30pm 16.3 11.7 3.7 43 5.8 E 17 22 9 12 1019.5 1019.4 0.0

Latest Capital City Observations: Canberra | Sydney | Melbourne | Brisbane | Adelaide | Perth | Hobart | Darwin

Other Formats:

Comma delimited format used in spreadsheet applications
http://www.bom.gov.au/fwo/IDN60901/IDN60901.94752.axf

JavaScript Object Notation format (JSON) in row-major order
http://www.bom.gov.au/fwo/IDN60901/IDN60901.94752.json